createdAt,value
2018-12-11T00:01:41.366Z,304.25
2018-12-11T00:04:16.704Z,297.25
2018-12-11T00:06:49.805Z,312.50
2018-12-11T00:09:23.187Z,298.50
2018-12-11T00:11:56.179Z,281.50
2018-12-11T00:14:29.465Z,315.25
2018-12-11T00:17:02.355Z,303.00
2018-12-11T00:19:35.521Z,272.00
2018-12-11T00:22:08.449Z,311.25
2018-12-11T00:24:41.576Z,300.75
2018-12-11T00:27:14.688Z,304.00
2018-12-11T00:29:47.772Z,294.75
2018-12-11T00:32:21.484Z,293.00
2018-12-11T00:34:54.924Z,297.00
2018-12-11T00:37:28.226Z,294.25
2018-12-11T00:40:01.310Z,311.50
2018-12-11T00:42:34.594Z,316.50
2018-12-11T00:45:07.855Z,286.25
2018-12-11T00:47:41.002Z,277.00
2018-12-11T00:50:14.156Z,289.25
2018-12-11T00:52:47.199Z,285.75
2018-12-11T00:55:20.266Z,304.75
2018-12-11T00:57:53.193Z,325.75
2018-12-11T01:00:26.258Z,287.00
2018-12-11T01:02:59.933Z,301.50
2018-12-11T01:05:32.968Z,256.25
2018-12-11T01:08:06.218Z,311.50
2018-12-11T01:10:39.114Z,290.50
2018-12-11T01:13:12.207Z,292.75
2018-12-11T01:15:45.494Z,342.50
2018-12-11T01:18:18.681Z,366.75
2018-12-11T01:20:51.706Z,332.00
2018-12-11T01:23:24.998Z,375.00
2018-12-11T01:25:58.227Z,407.50
2018-12-11T01:28:31.290Z,407.75
2018-12-11T01:31:04.350Z,345.00
2018-12-11T01:33:38.181Z,351.75
2018-12-11T01:36:11.310Z,347.75
2018-12-11T01:38:45.739Z,396.25
2018-12-11T01:41:19.085Z,402.00
2018-12-11T01:43:52.584Z,376.50
2018-12-11T01:46:25.916Z,419.00
2018-12-11T01:48:59.404Z,384.25
2018-12-11T01:51:32.420Z,441.25
2018-12-11T01:54:05.818Z,466.50
2018-12-11T01:56:38.810Z,422.25
2018-12-11T01:59:12.146Z,466.50
2018-12-11T02:01:45.374Z,434.50
2018-12-11T02:04:19.402Z,393.25
2018-12-11T02:06:52.488Z,370.50
2018-12-11T02:09:26.315Z,412.25
2018-12-11T02:11:59.457Z,421.00
2018-12-11T02:14:32.507Z,465.00
2018-12-11T02:17:05.370Z,441.75
2018-12-11T02:19:38.503Z,432.00
2018-12-11T02:22:11.539Z,485.25
2018-12-11T02:24:44.663Z,434.25
2018-12-11T02:27:17.672Z,446.25
2018-12-11T02:29:50.893Z,445.75
2018-12-11T02:32:24.107Z,423.25
2018-12-11T02:34:57.877Z,470.25
2018-12-11T02:37:30.864Z,414.25
2018-12-11T02:40:04.150Z,474.50
2018-12-11T02:42:37.017Z,419.00
2018-12-11T02:45:10.786Z,477.50
2018-12-11T02:47:43.935Z,453.00
2018-12-11T02:50:17.231Z,492.40
2018-12-11T02:52:50.287Z,475.20
2018-12-11T02:55:23.515Z,489.20
2018-12-11T02:57:56.651Z,422.75
2018-12-11T03:00:29.797Z,451.75
2018-12-11T03:03:02.835Z,417.50
2018-12-11T03:05:36.437Z,408.50
2018-12-11T03:08:09.936Z,402.25
2018-12-11T03:10:43.833Z,472.00
2018-12-11T03:13:17.745Z,461.75
2018-12-11T03:15:51.076Z,464.50
2018-12-11T03:18:23.963Z,482.00
2018-12-11T03:20:57.020Z,479.20
2018-12-11T03:23:30.321Z,484.40
2018-12-11T03:26:04.129Z,479.60
2018-12-11T03:28:37.077Z,481.60
2018-12-11T03:31:10.270Z,564.25
2018-12-11T03:33:43.350Z,582.80
2018-12-11T03:36:17.153Z,587.20
2018-12-11T03:38:50.077Z,619.20
2018-12-11T03:41:23.550Z,566.40
2018-12-11T03:43:56.604Z,574.40
2018-12-11T03:46:30.496Z,538.60
2018-12-11T03:49:03.888Z,505.60
2018-12-11T03:51:36.928Z,462.25
2018-12-11T03:54:09.966Z,478.00
2018-12-11T03:56:43.198Z,441.00
2018-12-11T03:59:16.330Z,450.75
2018-12-11T04:01:49.767Z,463.00
2018-12-11T04:04:23.030Z,465.25
2018-12-11T04:06:57.034Z,460.50
2018-12-11T04:09:30.105Z,483.80
2018-12-11T04:12:03.428Z,450.25
2018-12-11T04:14:36.791Z,506.00
2018-12-11T04:17:10.800Z,497.00
2018-12-11T04:19:44.114Z,487.25
2018-12-11T04:22:17.026Z,517.80
2018-12-11T04:24:50.291Z,507.40
2018-12-11T04:27:23.581Z,535.00
2018-12-11T04:29:56.680Z,541.80
2018-12-11T04:32:29.678Z,497.60
2018-12-11T04:35:03.481Z,463.00
2018-12-11T04:37:37.295Z,490.00
2018-12-11T04:40:11.158Z,440.00
2018-12-11T04:42:45.557Z,422.00
2018-12-11T04:45:18.865Z,355.75
2018-12-11T04:47:52.303Z,407.50
2018-12-11T04:50:25.709Z,405.75
2018-12-11T04:52:59.386Z,358.00
2018-12-11T04:55:32.870Z,367.75
2018-12-11T04:58:06.115Z,380.00
2018-12-11T05:00:39.468Z,398.50
2018-12-11T05:03:13.423Z,394.50
2018-12-11T05:05:46.435Z,371.50
2018-12-11T05:08:19.926Z,367.75
2018-12-11T05:10:53.231Z,354.50
2018-12-11T05:13:26.621Z,340.50
2018-12-11T05:16:00.202Z,308.75
2018-12-11T05:18:33.485Z,360.25
2018-12-11T05:21:07.420Z,363.50
2018-12-11T05:23:40.752Z,350.50
2018-12-11T05:26:14.349Z,367.50
2018-12-11T05:28:47.615Z,342.50
2018-12-11T05:31:23.334Z,359.25
2018-12-11T05:33:57.853Z,363.25
2018-12-11T05:36:31.629Z,358.75
2018-12-11T05:39:06.980Z,375.50
2018-12-11T05:41:40.667Z,347.00
2018-12-11T05:53:14.660Z,325.25
2018-12-11T05:55:48.414Z,313.00
2018-12-11T05:58:21.968Z,348.25
2018-12-11T06:00:55.783Z,338.25
2018-12-11T06:03:32.191Z,333.75
2018-12-11T06:06:05.719Z,292.50
2018-12-11T06:08:40.335Z,312.25
2018-12-11T06:11:23.074Z,286.25
2018-12-11T06:13:56.315Z,320.75
2018-12-11T06:16:30.069Z,295.50
2018-12-11T06:19:04.270Z,282.25
2018-12-11T06:21:38.017Z,280.00
2018-12-11T06:24:11.312Z,268.25
2018-12-11T06:26:46.512Z,285.75
2018-12-11T06:29:20.064Z,259.75
2018-12-11T06:31:53.452Z,268.75
2018-12-11T06:34:26.877Z,266.25
2018-12-11T06:37:00.420Z,260.50
2018-12-11T06:39:33.818Z,235.75
2018-12-11T06:48:06.886Z,231.20
2018-12-11T06:50:40.907Z,235.00
2018-12-11T06:53:14.323Z,243.50
2018-12-11T06:55:48.772Z,257.75
2018-12-11T06:58:22.551Z,239.40
2018-12-11T07:00:56.623Z,246.50
2018-12-11T07:03:30.214Z,228.40
2018-12-11T07:06:03.629Z,248.25
2018-12-11T07:08:37.004Z,240.75
2018-12-11T07:11:10.292Z,220.00
2018-12-11T07:13:43.981Z,235.00
2018-12-11T07:16:18.357Z,247.00
2018-12-11T07:18:52.046Z,267.25
2018-12-11T07:21:26.056Z,250.25
2018-12-11T07:23:59.328Z,221.60
2018-12-11T07:26:32.771Z,220.80
2018-12-11T07:29:05.924Z,240.50
2018-12-11T07:31:38.990Z,247.50
2018-12-11T07:34:12.222Z,270.25
2018-12-11T07:36:45.644Z,242.75
2018-12-11T07:39:18.615Z,255.50
2018-12-11T07:41:52.299Z,205.80
2018-12-11T07:44:25.617Z,218.60
2018-12-11T07:46:59.295Z,205.80
2018-12-11T07:49:32.707Z,214.40
2018-12-11T07:52:06.746Z,218.00
2018-12-11T07:54:41.303Z,221.60
2018-12-11T07:57:15.751Z,222.40
2018-12-11T07:59:49.956Z,211.20
2018-12-11T08:02:23.793Z,210.40
2018-12-11T08:04:57.308Z,237.25
2018-12-11T08:07:31.168Z,234.80
2018-12-11T08:10:05.223Z,237.00
2018-12-11T08:12:39.215Z,221.40
2018-12-11T08:15:12.853Z,244.40
2018-12-11T08:17:46.303Z,245.50
2018-12-11T08:20:19.395Z,224.60
2018-12-11T08:22:53.057Z,224.80
2018-12-11T08:25:25.527Z,229.80
2018-12-11T08:27:58.343Z,223.20
2018-12-11T08:30:30.226Z,181.60
2018-12-11T08:33:02.133Z,219.00
2018-12-11T08:35:34.003Z,221.20
2018-12-11T08:38:05.872Z,203.20
2018-12-11T08:40:37.778Z,216.60
2018-12-11T08:43:09.327Z,200.20
2018-12-11T08:45:41.119Z,198.60
2018-12-11T08:48:12.590Z,211.40
2018-12-11T08:50:44.292Z,182.40
2018-12-11T08:53:16.304Z,181.40
2018-12-11T08:55:48.072Z,208.80
2018-12-11T08:58:20.885Z,183.00
2018-12-11T09:00:52.640Z,190.80
2018-12-11T09:03:24.165Z,201.40
2018-12-11T09:05:56.304Z,207.20
2018-12-11T09:08:27.883Z,201.00
2018-12-11T09:10:59.635Z,183.20
2018-12-11T09:13:31.171Z,203.40
2018-12-11T09:16:03.478Z,178.00
2018-12-11T09:18:35.101Z,193.60
2018-12-11T09:21:06.924Z,164.20
2018-12-11T09:23:39.062Z,197.80
2018-12-11T09:26:10.880Z,182.40
2018-12-11T09:28:43.053Z,175.60
2018-12-11T09:31:15.189Z,184.60
2018-12-11T09:33:46.611Z,193.20
2018-12-11T09:36:18.331Z,195.40
2018-12-11T09:38:49.838Z,175.60
2018-12-11T09:41:21.431Z,168.80
2018-12-11T09:43:53.005Z,176.40
2018-12-11T09:46:24.463Z,181.40
2018-12-11T09:48:56.179Z,163.60
2018-12-11T09:51:29.260Z,183.00
2018-12-11T09:54:04.119Z,184.60
2018-12-11T09:56:38.278Z,165.00
2018-12-11T09:59:10.330Z,184.40
2018-12-11T10:01:41.937Z,178.00
2018-12-11T10:04:13.586Z,175.20
2018-12-11T10:06:50.705Z,156.20
2018-12-11T10:09:31.420Z,173.40
2018-12-11T10:12:03.925Z,175.80
2018-12-11T10:14:35.437Z,168.80
2018-12-11T10:20:10.413Z,184.00
2018-12-11T10:22:45.692Z,161.40
2018-12-11T10:25:24.992Z,180.00
2018-12-11T10:28:00.427Z,179.40
2018-12-11T10:30:40.633Z,178.00
2018-12-11T10:33:16.011Z,176.60
2018-12-11T10:35:47.766Z,157.00
2018-12-11T10:38:23.880Z,172.80
2018-12-11T10:40:59.432Z,163.20
2018-12-11T10:43:36.291Z,175.60
2018-12-11T10:46:11.929Z,178.80
2018-12-11T10:48:46.977Z,190.80
2018-12-11T10:51:20.344Z,192.60
2018-12-11T10:53:56.811Z,179.40
2018-12-11T10:56:32.246Z,188.40
2018-12-11T10:59:10.234Z,184.80
2018-12-11T11:01:50.769Z,190.40
2018-12-11T11:04:25.619Z,191.80
2018-12-11T11:07:01.130Z,201.40
2018-12-11T11:09:35.909Z,180.20
2018-12-11T11:12:11.209Z,207.60
2018-12-11T11:14:46.365Z,183.80
2018-12-11T11:17:24.996Z,185.80
2018-12-11T11:20:00.400Z,184.00
2018-12-11T11:25:33.479Z,186.60
2018-12-11T11:28:10.235Z,192.60
2018-12-11T11:30:56.884Z,189.80
2018-12-11T11:33:37.059Z,187.60
2018-12-11T11:36:23.432Z,191.60
2018-12-11T11:38:55.962Z,170.00
2018-12-11T11:41:27.497Z,198.60
2018-12-11T11:44:10.158Z,186.00
2018-12-11T11:46:44.022Z,196.80
2018-12-11T11:49:19.544Z,203.00
2018-12-11T11:51:51.043Z,190.40
2018-12-11T11:54:23.646Z,185.20
2018-12-11T11:56:55.261Z,188.80
2018-12-11T11:59:27.149Z,186.20
2018-12-11T12:01:59.402Z,201.00
2018-12-11T12:04:32.053Z,184.80
2018-12-11T12:07:04.349Z,183.00
2018-12-11T12:09:37.467Z,184.00
2018-12-11T12:12:10.418Z,183.40
2018-12-11T12:14:41.989Z,179.60
2018-12-11T12:17:13.619Z,208.40
2018-12-11T12:19:45.139Z,195.20
2018-12-11T12:25:14.560Z,204.75
2018-12-11T12:27:46.112Z,201.00
2018-12-11T12:30:26.496Z,208.20
2018-12-11T12:32:58.111Z,218.40
2018-12-11T12:35:29.864Z,210.00
2018-12-11T12:38:01.385Z,224.80
2018-12-11T12:40:33.204Z,220.60
2018-12-11T12:43:04.801Z,243.25
2018-12-11T12:45:40.003Z,236.50
2018-12-11T12:48:11.518Z,208.75
2018-12-11T12:50:43.275Z,247.75
2018-12-11T12:53:14.857Z,236.25
2018-12-11T12:55:46.317Z,250.75
2018-12-11T12:58:17.943Z,244.00
2018-12-11T13:00:50.166Z,271.75
2018-12-11T13:03:21.900Z,290.75
2018-12-11T13:05:55.259Z,315.00
2018-12-11T13:08:28.154Z,319.50
2018-12-11T13:10:59.665Z,275.75
2018-12-11T13:13:31.533Z,289.75
2018-12-11T13:16:05.135Z,315.25
2018-12-11T13:18:40.320Z,380.00
2018-12-11T13:21:11.668Z,455.60
2018-12-11T13:23:43.540Z,460.20
2018-12-11T13:26:15.278Z,471.20
2018-12-11T13:28:46.738Z,427.00
2018-12-11T13:31:22.473Z,448.40
2018-12-11T13:33:57.271Z,416.80
2018-12-11T13:36:33.359Z,370.80
2018-12-11T13:39:09.264Z,381.25
2018-12-11T13:41:41.848Z,413.50
2018-12-11T13:44:13.756Z,392.75
2018-12-11T13:46:45.104Z,412.25
2018-12-11T13:49:17.571Z,459.80
2018-12-11T13:51:48.992Z,445.40
2018-12-11T13:54:20.563Z,459.60
2018-12-11T13:56:51.901Z,429.80
2018-12-11T13:59:24.380Z,374.50
2018-12-11T14:01:56.390Z,449.20
2018-12-11T14:04:30.077Z,412.40
2018-12-11T14:07:02.448Z,414.80
2018-12-11T14:09:42.418Z,427.40
2018-12-11T14:12:14.337Z,425.80
2018-12-11T14:15:01.600Z,427.20
2018-12-11T14:17:38.863Z,438.60
2018-12-11T14:23:18.455Z,427.80
2018-12-11T14:25:51.468Z,441.20
2018-12-11T14:28:23.288Z,457.00
2018-12-11T14:30:54.948Z,447.80
2018-12-11T14:33:26.974Z,438.00
2018-12-11T14:36:05.348Z,431.20
2018-12-11T14:38:40.712Z,436.00
2018-12-11T14:41:16.104Z,442.00
2018-12-11T14:43:52.392Z,440.25
2018-12-11T14:46:27.308Z,420.00
2018-12-11T14:48:58.891Z,435.50
2018-12-11T14:51:36.233Z,428.75
2018-12-11T14:54:14.013Z,404.50
2018-12-11T14:56:45.522Z,391.75
2018-12-11T14:59:29.118Z,415.75
2018-12-11T15:02:06.600Z,413.50
2018-12-11T15:04:46.011Z,380.25
2018-12-11T15:07:23.778Z,355.75
2018-12-11T15:09:58.678Z,366.00
2018-12-11T15:12:33.296Z,381.25
2018-12-11T15:15:05.133Z,384.00
2018-12-11T15:17:38.955Z,356.00
2018-12-11T15:20:16.370Z,386.75
2018-12-11T15:22:48.070Z,387.50
2018-12-11T15:25:28.400Z,387.50
2018-12-11T15:28:03.746Z,384.25
2018-12-11T15:30:35.373Z,369.00
2018-12-11T15:33:06.908Z,366.25
2018-12-11T15:35:44.089Z,402.25
2018-12-11T15:38:15.681Z,392.00
2018-12-11T15:40:47.304Z,397.25
2018-12-11T15:43:36.045Z,385.25
2018-12-11T15:46:07.833Z,423.50
2018-12-11T15:48:40.339Z,414.50
2018-12-11T15:51:12.361Z,405.25
2018-12-11T15:53:44.265Z,433.00
2018-12-11T15:56:16.450Z,417.00
2018-12-11T15:58:48.766Z,426.50
2018-12-11T16:01:20.665Z,405.75
2018-12-11T16:03:52.968Z,418.75
2018-12-11T16:06:26.129Z,408.00
2018-12-11T16:09:01.039Z,440.50
2018-12-11T16:11:35.401Z,443.00
2018-12-11T16:14:07.292Z,423.80
2018-12-11T16:16:39.389Z,404.75
2018-12-11T16:19:11.203Z,442.00
2018-12-11T16:21:43.419Z,457.75
2018-12-11T16:24:15.234Z,432.00
2018-12-11T16:26:47.121Z,445.00
2018-12-11T16:29:18.682Z,430.75
2018-12-11T16:31:50.671Z,458.00
2018-12-11T16:34:22.615Z,414.75
2018-12-11T16:36:54.869Z,431.50
2018-12-11T16:39:27.202Z,426.75
2018-12-11T16:42:00.059Z,460.00
2018-12-11T16:44:32.153Z,424.00
2018-12-11T16:47:04.140Z,446.00
2018-12-11T16:49:35.763Z,436.50
2018-12-11T16:52:15.299Z,437.00
2018-12-11T16:54:47.035Z,451.50
2018-12-11T16:57:19.783Z,414.50
2018-12-11T16:59:51.938Z,416.00
2018-12-11T17:02:23.782Z,442.00
2018-12-11T17:04:55.816Z,449.75
2018-12-11T17:07:28.332Z,445.75
2018-12-11T17:10:00.326Z,454.25
2018-12-11T17:12:33.235Z,461.50
2018-12-11T17:15:05.841Z,464.25
2018-12-11T17:17:37.994Z,424.25
2018-12-11T17:20:10.091Z,446.75
2018-12-11T17:22:41.920Z,445.25
2018-12-11T17:25:14.450Z,411.75
2018-12-11T17:27:46.436Z,418.25
2018-12-11T17:30:18.417Z,449.25
2018-12-11T17:32:50.535Z,421.00
2018-12-11T17:35:22.207Z,418.50
2018-12-11T17:37:54.491Z,408.25
2018-12-11T17:40:26.594Z,431.50
2018-12-11T17:42:58.224Z,412.75
2018-12-11T17:45:30.087Z,394.00
2018-12-11T17:48:02.557Z,374.50
2018-12-11T17:50:34.327Z,369.75
2018-12-11T17:53:06.423Z,354.50
2018-12-11T17:55:38.097Z,352.00
2018-12-11T17:58:10.010Z,355.25
2018-12-11T18:00:41.697Z,323.00
2018-12-11T18:03:14.475Z,335.75
2018-12-11T18:05:46.675Z,345.00
2018-12-11T18:08:20.047Z,336.50
2018-12-11T18:10:52.537Z,330.50
2018-12-11T18:13:24.534Z,310.25
2018-12-11T18:15:56.263Z,327.25
2018-12-11T18:18:28.212Z,326.00
2018-12-11T18:21:00.427Z,311.75
2018-12-11T18:23:32.315Z,335.50
2018-12-11T18:26:04.230Z,306.50
2018-12-11T18:28:36.164Z,309.50
2018-12-11T18:31:08.547Z,304.25
2018-12-11T18:33:40.273Z,307.00
2018-12-11T18:36:11.902Z,319.00
2018-12-11T18:38:45.587Z,301.75
2018-12-11T18:41:17.400Z,330.75
2018-12-11T18:43:49.300Z,275.00
2018-12-11T18:46:21.130Z,309.00
2018-12-11T18:48:53.293Z,293.00
2018-12-11T18:51:25.112Z,301.50
2018-12-11T18:53:56.860Z,297.50
2018-12-11T18:56:28.507Z,281.00
2018-12-11T18:59:00.433Z,320.25
2018-12-11T19:01:32.151Z,317.50
2018-12-11T19:04:04.075Z,324.00
2018-12-11T19:06:37.808Z,315.75
2018-12-11T19:09:11.221Z,322.25
2018-12-11T19:11:45.908Z,317.75
2018-12-11T19:14:18.288Z,325.50
2018-12-11T19:16:51.459Z,306.25
2018-12-11T19:19:23.508Z,317.50
2018-12-11T19:21:55.696Z,302.00
2018-12-11T19:27:44.873Z,296.25
2018-12-11T19:30:16.899Z,308.25
2018-12-11T19:32:50.820Z,289.00
2018-12-11T19:35:24.139Z,308.50
2018-12-11T19:37:59.328Z,286.25
2018-12-11T19:40:40.547Z,318.00
2018-12-11T19:43:08.856Z,294.50
2018-12-11T19:45:40.981Z,299.25
2018-12-11T19:48:12.810Z,293.25
2018-12-11T19:50:44.492Z,284.50
2018-12-11T19:53:16.690Z,291.00
2018-12-11T19:55:48.506Z,289.75
2018-12-11T19:58:20.423Z,291.75
2018-12-11T20:00:51.986Z,292.25
2018-12-11T20:03:24.266Z,299.25
2018-12-11T20:05:56.334Z,278.50
2018-12-11T20:08:31.066Z,303.00
2018-12-11T20:11:03.338Z,297.00
2018-12-11T20:13:35.438Z,310.25
2018-12-11T20:16:07.002Z,292.75
2018-12-11T20:18:39.491Z,316.25
2018-12-11T20:21:12.418Z,289.00
2018-12-11T20:23:45.400Z,331.50
2018-12-11T20:26:20.107Z,318.75
2018-12-11T20:28:52.720Z,313.75
2018-12-11T20:31:24.678Z,310.25
2018-12-11T20:33:57.072Z,340.75
2018-12-11T20:36:28.890Z,317.75
2018-12-11T20:39:00.975Z,340.75
2018-12-11T20:41:35.693Z,338.50
2018-12-11T20:44:07.793Z,356.75
2018-12-11T20:46:39.682Z,326.25
2018-12-11T20:49:11.433Z,361.25
2018-12-11T20:51:43.092Z,326.25
2018-12-11T20:54:15.285Z,344.50
2018-12-11T20:56:47.192Z,326.25
2018-12-11T20:59:19.084Z,338.50
2018-12-11T21:01:51.067Z,318.00
2018-12-11T21:04:23.239Z,321.25
2018-12-11T21:06:55.317Z,355.75
2018-12-11T21:09:27.163Z,355.00
2018-12-11T21:12:00.197Z,322.75
2018-12-11T21:14:32.891Z,353.75
2018-12-11T21:17:04.752Z,343.25
2018-12-11T21:19:36.615Z,331.75
2018-12-11T21:22:08.497Z,342.00
2018-12-11T21:24:40.362Z,335.50
2018-12-11T21:27:12.331Z,340.00
2018-12-11T21:29:44.289Z,342.25
2018-12-11T21:32:15.995Z,328.50
2018-12-11T21:34:47.955Z,338.00
2018-12-11T21:37:19.620Z,313.25
2018-12-11T21:39:51.431Z,328.00
2018-12-11T21:42:23.635Z,320.25
2018-12-11T21:44:56.705Z,336.25
2018-12-11T21:47:28.555Z,334.00
2018-12-11T21:50:00.384Z,331.00
2018-12-11T21:52:32.316Z,351.75
2018-12-11T21:55:04.288Z,324.25
2018-12-11T21:57:36.268Z,337.25
2018-12-11T22:00:10.473Z,318.75
2018-12-11T22:02:43.648Z,339.75
2018-12-11T22:05:15.420Z,336.75
2018-12-11T22:07:47.257Z,341.25
2018-12-11T22:10:19.257Z,334.00
2018-12-11T22:12:52.306Z,329.50
2018-12-11T22:15:24.078Z,341.75
2018-12-11T22:17:55.995Z,342.25
2018-12-11T22:20:27.552Z,348.75
2018-12-11T22:22:59.307Z,339.75
2018-12-11T22:25:30.918Z,356.25
2018-12-11T22:28:02.952Z,357.75
2018-12-11T22:30:34.861Z,344.25
2018-12-11T22:33:06.756Z,306.25
2018-12-11T22:35:38.542Z,341.00
2018-12-11T22:38:10.484Z,362.50
2018-12-11T22:40:42.179Z,352.25
2018-12-11T22:43:14.524Z,320.50
2018-12-11T22:45:46.324Z,336.50
2018-12-11T22:48:19.444Z,362.75
2018-12-11T22:50:51.406Z,349.25
2018-12-11T22:53:24.484Z,338.50
2018-12-11T22:55:56.259Z,350.75
2018-12-11T22:58:28.012Z,343.00
2018-12-11T23:00:59.858Z,327.75
2018-12-11T23:03:33.793Z,355.00
2018-12-11T23:06:06.051Z,353.25
2018-12-11T23:08:40.538Z,338.50
2018-12-11T23:11:12.458Z,327.00
2018-12-11T23:13:45.150Z,358.25
2018-12-11T23:16:16.959Z,336.00
2018-12-11T23:18:48.641Z,370.00
2018-12-11T23:21:20.615Z,341.00
2018-12-11T23:23:52.435Z,376.50
2018-12-11T23:26:24.432Z,347.00
2018-12-11T23:28:56.339Z,357.00
2018-12-11T23:31:28.398Z,365.50
2018-12-11T23:34:00.339Z,356.75
2018-12-11T23:36:32.293Z,319.00
2018-12-11T23:39:05.212Z,328.00
2018-12-11T23:41:39.289Z,372.25
2018-12-11T23:44:11.808Z,320.00
2018-12-11T23:46:43.910Z,347.75
2018-12-11T23:49:16.062Z,359.50
2018-12-11T23:51:48.297Z,344.75
2018-12-11T23:54:19.940Z,364.00
2018-12-11T23:56:51.932Z,341.50
2018-12-11T23:59:28.976Z,351.50
